createdAt,value
2022-08-24T00:00:31.644Z,100216.41
2022-08-24T00:03:36.825Z,100219.89
2022-08-24T00:06:43.717Z,100226.38
2022-08-24T00:09:49.532Z,100221.83
2022-08-24T00:12:58.455Z,100226.13
2022-08-24T00:16:04.270Z,100225.05
2022-08-24T00:19:10.982Z,100222.90
2022-08-24T00:22:16.826Z,100221.22
2022-08-24T00:25:24.924Z,100226.87
2022-08-24T00:28:30.211Z,100229.02
2022-08-24T00:31:37.125Z,100230.87
2022-08-24T00:34:56.152Z,100237.24
2022-08-24T00:37:51.268Z,100237.80
2022-08-24T00:41:01.870Z,100240.58
2022-08-24T00:44:14.161Z,100234.02
2022-08-24T00:47:29.281Z,100245.24
2022-08-24T00:50:42.615Z,100240.78
2022-08-24T00:53:54.122Z,100247.83
2022-08-24T00:57:03.758Z,100250.03
2022-08-24T01:00:14.034Z,100251.36
2022-08-24T01:03:20.876Z,100254.23
2022-08-24T01:06:26.602Z,100248.52
2022-08-24T01:09:31.419Z,100254.91
2022-08-24T01:12:32.792Z,100253.11
2022-08-24T01:15:27.232Z,100252.16
2022-08-24T01:18:53.257Z,100250.30
2022-08-24T01:22:18.993Z,100249.37
2022-08-24T01:25:25.831Z,100252.70
2022-08-24T01:28:33.147Z,100255.38
2022-08-24T01:31:38.933Z,100259.94
2022-08-24T01:34:44.724Z,100263.38
2022-08-24T01:37:49.959Z,100256.27
2022-08-24T01:41:03.075Z,100261.16
2022-08-24T01:44:09.421Z,100276.06
2022-08-24T01:47:16.186Z,100274.39
2022-08-24T01:50:22.076Z,100278.78
2022-08-24T01:53:29.221Z,100276.58
2022-08-24T01:56:38.153Z,100280.85
2022-08-24T01:59:43.013Z,100280.66
2022-08-24T02:02:42.606Z,100286.16
2022-08-24T02:05:35.997Z,100284.19
2022-08-24T02:08:43.807Z,100289.59
2022-08-24T02:11:50.708Z,100290.66
2022-08-24T02:14:59.243Z,100292.62
2022-08-24T02:18:04.560Z,100293.38
2022-08-24T02:21:11.359Z,100297.80
2022-08-24T02:24:18.760Z,100300.39
2022-08-24T02:27:23.822Z,100301.98
2022-08-24T02:30:29.620Z,100301.45
2022-08-24T02:33:35.386Z,100308.77
2022-08-24T02:36:42.248Z,100307.02
2022-08-24T02:39:48.071Z,100306.09
2022-08-24T02:42:54.737Z,100306.38
2022-08-24T02:46:01.455Z,100304.98
2022-08-24T02:49:11.297Z,100305.54
2022-08-24T02:52:15.491Z,100313.70
2022-08-24T02:55:21.413Z,100318.68
2022-08-24T02:58:27.965Z,100312.86
2022-08-24T03:01:33.688Z,100316.45
2022-08-24T03:04:38.735Z,100312.92
2022-08-24T03:07:45.620Z,100310.43
2022-08-24T03:10:52.407Z,100318.48
2022-08-24T03:13:58.925Z,100321.69
2022-08-24T03:17:05.313Z,100316.97
2022-08-24T03:20:10.631Z,100310.97
2022-08-24T03:23:17.217Z,100311.77
2022-08-24T03:26:22.961Z,100316.23
2022-08-24T03:29:24.203Z,100314.44
2022-08-24T03:32:09.986Z,100313.53
2022-08-24T03:35:02.238Z,100323.30
2022-08-24T03:37:48.022Z,100319.53
2022-08-24T03:40:40.566Z,100318.18
2022-08-24T03:43:59.657Z,100327.44
2022-08-24T03:47:05.111Z,100326.52
2022-08-24T03:50:10.091Z,100325.72
2022-08-24T03:53:15.144Z,100330.84
2022-08-24T03:56:20.924Z,100340.00
2022-08-24T03:59:27.456Z,100340.11
2022-08-24T04:02:33.742Z,100340.11
2022-08-24T04:05:39.159Z,100340.75
2022-08-24T04:08:46.891Z,100341.17
2022-08-24T04:11:53.670Z,100336.59
2022-08-24T04:15:02.281Z,100342.42
2022-08-24T04:18:08.819Z,100343.94
2022-08-24T04:21:14.933Z,100352.42
2022-08-24T04:24:21.330Z,100353.89
2022-08-24T04:27:27.390Z,100349.11
2022-08-24T04:30:33.101Z,100347.16
2022-08-24T04:33:41.580Z,100360.91
2022-08-24T04:36:47.081Z,100359.74
2022-08-24T04:39:53.119Z,100344.64
2022-08-24T04:43:01.431Z,100347.94
2022-08-24T04:46:10.030Z,100356.77
2022-08-24T04:49:15.728Z,100353.53
2022-08-24T04:52:22.183Z,100341.70
2022-08-24T04:55:27.872Z,100353.98
2022-08-24T04:58:34.319Z,100351.96
2022-08-24T05:01:42.086Z,100351.58
2022-08-24T05:04:47.633Z,100345.38
2022-08-24T05:07:56.565Z,100358.38
2022-08-24T05:11:02.878Z,100354.33
2022-08-24T05:14:11.191Z,100352.16
2022-08-24T05:17:19.278Z,100348.25
2022-08-24T05:20:28.395Z,100355.37
2022-08-24T05:23:37.093Z,100356.04
2022-08-24T05:26:45.239Z,100351.90
2022-08-24T05:29:53.971Z,100348.13
2022-08-24T05:32:59.495Z,100338.37
2022-08-24T05:36:06.126Z,100328.67
2022-08-24T05:39:12.865Z,100356.13
2022-08-24T05:42:20.442Z,100350.55
2022-08-24T05:45:25.268Z,100346.66
2022-08-24T05:48:30.793Z,100340.00
2022-08-24T05:51:39.021Z,100342.55
2022-08-24T05:54:44.052Z,100353.21
2022-08-24T05:57:51.924Z,100348.70
2022-08-24T06:00:58.553Z,100343.13
2022-08-24T06:04:05.992Z,100349.58
2022-08-24T06:07:11.774Z,100356.05
2022-08-24T06:10:35.994Z,100355.49
2022-08-24T06:13:26.701Z,100372.59
2022-08-24T06:16:34.064Z,100355.80
2022-08-24T06:19:39.692Z,100346.56
2022-08-24T06:22:45.126Z,100350.73
2022-08-24T06:26:15.262Z,100356.93
2022-08-24T06:29:18.382Z,100338.13
2022-08-24T06:32:25.882Z,100346.80
2022-08-24T06:35:31.241Z,100339.21
2022-08-24T06:38:37.929Z,100359.11
2022-08-24T06:41:45.412Z,100348.44
2022-08-24T06:44:54.829Z,100340.28
2022-08-24T06:48:02.618Z,100343.09
2022-08-24T06:51:09.265Z,100349.01
2022-08-24T06:54:15.224Z,100343.08
2022-08-24T06:57:20.783Z,100334.05
2022-08-24T07:00:27.555Z,100332.02
2022-08-24T07:03:33.300Z,100321.30
2022-08-24T07:06:41.392Z,100322.91
2022-08-24T07:09:46.888Z,100325.42
2022-08-24T07:12:53.969Z,100323.21
2022-08-24T07:16:06.001Z,100327.16
2022-08-24T07:19:16.506Z,100322.95
2022-08-24T07:22:23.254Z,100326.48
2022-08-24T07:25:28.853Z,100310.38
2022-08-24T07:28:35.804Z,100320.14
2022-08-24T07:31:42.318Z,100324.89
2022-08-24T07:34:58.547Z,100329.90
2022-08-24T07:38:11.702Z,100335.44
2022-08-24T07:44:38.641Z,100315.80
2022-08-24T07:47:56.277Z,100344.75
2022-08-24T07:51:17.698Z,100315.17
2022-08-24T07:54:25.470Z,100329.80
2022-08-24T07:57:31.701Z,100311.20
2022-08-24T08:00:37.394Z,100314.80
2022-08-24T08:03:44.627Z,100305.92
2022-08-24T08:06:53.841Z,100300.08
2022-08-24T08:10:00.773Z,100301.31
2022-08-24T08:13:09.228Z,100305.47
2022-08-24T08:16:15.768Z,100302.24
2022-08-24T08:19:21.121Z,100304.36
2022-08-24T08:22:39.006Z,100307.42
2022-08-24T08:25:47.471Z,100293.30
2022-08-24T08:28:57.095Z,100309.27
2022-08-24T08:32:03.448Z,100310.66
2022-08-24T08:35:10.089Z,100305.23
2022-08-24T08:38:16.518Z,100291.23
2022-08-24T08:41:45.695Z,100294.84
2022-08-24T08:45:21.514Z,100297.16
2022-08-24T08:48:43.834Z,100303.56
2022-08-24T08:52:32.289Z,100298.55
2022-08-24T08:56:13.298Z,100287.06
2022-08-24T08:59:29.569Z,100269.98
2022-08-24T09:02:55.719Z,100302.55
2022-08-24T09:06:31.338Z,100285.59
2022-08-24T09:09:57.369Z,100301.09
2022-08-24T09:13:30.999Z,100277.57
2022-08-24T09:17:21.637Z,100285.59
2022-08-24T09:20:43.675Z,100294.86
2022-08-24T09:24:18.026Z,100278.72
2022-08-24T09:27:42.154Z,100277.79
2022-08-24T09:30:52.591Z,100281.92
2022-08-24T09:34:05.000Z,100287.25
2022-08-24T09:37:20.360Z,100288.01
2022-08-24T09:40:18.713Z,100282.31
2022-08-24T09:44:10.385Z,100271.80
2022-08-24T09:47:20.104Z,100297.67
2022-08-24T09:51:03.738Z,100274.48
2022-08-24T09:54:37.632Z,100284.50
2022-08-24T09:58:11.286Z,100274.27
2022-08-24T10:01:57.724Z,100323.60
2022-08-24T10:05:17.433Z,100282.92
2022-08-24T10:09:23.995Z,100278.93
2022-08-24T10:13:14.351Z,100296.16
2022-08-24T10:16:43.968Z,100284.73
2022-08-24T10:20:31.389Z,100307.27
2022-08-24T10:24:29.605Z,100304.63
2022-08-24T10:27:42.215Z,100285.87
2022-08-24T10:31:01.491Z,100279.05
2022-08-24T10:34:24.706Z,100281.50
2022-08-24T10:37:43.550Z,100274.33
2022-08-24T10:41:01.317Z,100277.89
2022-08-24T10:44:52.270Z,100284.99
2022-08-24T10:48:03.095Z,100277.78
2022-08-24T10:51:35.421Z,100288.07
2022-08-24T10:54:41.031Z,100271.66
2022-08-24T10:57:56.799Z,100275.19
2022-08-24T11:00:58.215Z,100281.28
2022-08-24T11:04:13.937Z,100267.74
2022-08-24T11:07:35.642Z,100264.50
2022-08-24T11:10:43.410Z,100264.33
2022-08-24T11:13:49.207Z,100258.36
2022-08-24T11:16:58.077Z,100261.77
2022-08-24T11:20:06.426Z,100269.84
2022-08-24T11:23:18.970Z,100262.31
2022-08-24T11:26:34.759Z,100290.33
2022-08-24T11:30:04.703Z,100262.35
2022-08-24T11:33:18.937Z,100277.27
2022-08-24T11:36:31.561Z,100259.13
2022-08-24T11:39:43.735Z,100259.13
2022-08-24T11:43:19.205Z,100260.07
2022-08-24T11:46:45.062Z,100294.56
2022-08-24T11:50:00.730Z,100271.47
2022-08-24T11:53:30.880Z,100261.20
2022-08-24T11:57:05.250Z,100267.06
2022-08-24T12:00:26.324Z,100260.22
2022-08-24T12:04:07.370Z,100252.80
2022-08-24T12:07:22.350Z,100257.17
2022-08-24T12:10:55.408Z,100264.78
2022-08-24T12:14:38.778Z,100253.48
2022-08-24T12:18:26.143Z,100242.80
2022-08-24T12:21:36.290Z,100242.80
2022-08-24T12:25:15.436Z,100252.06
2022-08-24T12:28:23.555Z,100257.43
2022-08-24T12:31:51.704Z,100255.30
2022-08-24T12:35:35.648Z,100246.91
2022-08-24T12:38:46.810Z,100253.05
2022-08-24T12:42:21.771Z,100244.90
2022-08-24T12:45:30.355Z,100257.90
2022-08-24T12:49:01.956Z,100252.33
2022-08-24T12:52:28.335Z,100242.69
2022-08-24T12:56:02.447Z,100242.69
2022-08-24T12:59:39.366Z,100240.70
2022-08-24T13:02:56.612Z,100240.77
2022-08-24T13:06:06.660Z,100243.84
2022-08-24T13:09:31.412Z,100232.80
2022-08-24T13:13:01.404Z,100235.38
2022-08-24T13:16:11.175Z,100239.53
2022-08-24T13:19:33.618Z,100235.59
2022-08-24T13:23:08.199Z,100248.44
2022-08-24T13:26:40.063Z,100245.95
2022-08-24T13:29:49.643Z,100240.73
2022-08-24T13:33:00.550Z,100240.47
2022-08-24T13:36:16.596Z,100239.25
2022-08-24T13:40:09.858Z,100232.66
2022-08-24T13:43:39.644Z,100232.66
2022-08-24T13:47:25.548Z,100235.02
2022-08-24T13:51:07.543Z,100235.02
2022-08-24T13:54:38.186Z,100233.70
2022-08-24T13:57:59.339Z,100233.70
2022-08-24T14:01:33.053Z,100228.16
2022-08-24T14:04:56.375Z,100225.12
2022-08-24T14:08:30.310Z,100221.19
2022-08-24T14:12:02.151Z,100226.97
2022-08-24T14:15:46.931Z,100223.75
2022-08-24T14:19:17.129Z,100223.75
2022-08-24T14:22:29.342Z,100226.89
2022-08-24T14:25:44.472Z,100219.72
2022-08-24T14:28:58.122Z,100229.36
2022-08-24T14:32:12.933Z,100229.36
2022-08-24T14:35:37.770Z,100230.77
2022-08-24T14:39:00.450Z,100237.25
2022-08-24T14:42:34.874Z,100226.38
2022-08-24T14:46:20.357Z,100219.68
2022-08-24T14:49:51.882Z,100224.44
2022-08-24T14:53:04.459Z,100224.44
2022-08-24T14:56:25.022Z,100231.80
2022-08-24T14:59:54.610Z,100218.86
2022-08-24T15:03:40.910Z,100223.72
2022-08-24T15:07:09.081Z,100224.15
2022-08-24T15:10:17.179Z,100229.94
2022-08-24T15:13:29.265Z,100221.56
2022-08-24T15:16:55.551Z,100229.25
2022-08-24T15:20:26.688Z,100226.22
2022-08-24T15:24:10.008Z,100221.56
2022-08-24T15:27:50.721Z,100228.69
2022-08-24T15:31:05.733Z,100220.39
2022-08-24T15:34:15.193Z,100230.01
2022-08-24T15:37:22.778Z,100226.02
2022-08-24T15:40:39.959Z,100218.23
2022-08-24T15:43:48.887Z,100225.61
2022-08-24T15:47:01.802Z,100223.00
2022-08-24T15:50:16.040Z,100221.92
2022-08-24T15:53:23.108Z,100239.14
2022-08-24T15:56:47.407Z,100233.86
2022-08-24T15:59:58.470Z,100240.65
2022-08-24T16:03:08.546Z,100233.80
2022-08-24T16:06:16.429Z,100239.66
2022-08-24T16:09:37.248Z,100244.84
2022-08-24T16:12:42.083Z,100240.95
2022-08-24T16:15:47.865Z,100241.02
2022-08-24T16:19:12.695Z,100245.38
2022-08-24T16:22:23.214Z,100238.44
2022-08-24T16:25:34.893Z,100243.27
2022-08-24T16:28:47.770Z,100240.85
2022-08-24T16:32:05.126Z,100252.98
2022-08-24T16:35:27.750Z,100247.13
2022-08-24T16:38:35.919Z,100248.66
2022-08-24T16:41:45.517Z,100246.89
2022-08-24T16:44:57.163Z,100249.91
2022-08-24T16:48:05.155Z,100254.41
2022-08-24T16:51:12.887Z,100256.14
2022-08-24T16:54:19.061Z,100255.06
2022-08-24T16:57:30.028Z,100257.25
2022-08-24T17:00:39.458Z,100261.01
2022-08-24T17:03:45.160Z,100256.80
2022-08-24T17:06:50.898Z,100257.94
2022-08-24T17:09:58.772Z,100267.73
2022-08-24T17:13:04.957Z,100271.33
2022-08-24T17:16:10.961Z,100271.62
2022-08-24T17:19:19.297Z,100275.44
2022-08-24T17:22:27.677Z,100279.05
2022-08-24T17:25:38.230Z,100273.52
2022-08-24T17:28:45.843Z,100275.62
2022-08-24T17:31:52.785Z,100276.08
2022-08-24T17:34:59.074Z,100280.78
2022-08-24T17:38:05.247Z,100279.92
2022-08-24T17:41:11.327Z,100279.62
2022-08-24T17:44:20.445Z,100275.95
2022-08-24T17:47:25.200Z,100276.80
2022-08-24T17:50:31.169Z,100275.88
2022-08-24T17:53:36.688Z,100269.97
2022-08-24T17:56:45.901Z,100277.52
2022-08-24T17:59:51.751Z,100276.61
2022-08-24T18:02:57.362Z,100272.48
2022-08-24T18:06:03.565Z,100274.41
2022-08-24T18:09:11.454Z,100273.56
2022-08-24T18:12:17.662Z,100274.09
2022-08-24T18:15:34.614Z,100277.70
2022-08-24T18:18:30.685Z,100274.94
2022-08-24T18:21:35.783Z,100270.74
2022-08-24T18:24:41.135Z,100269.91
2022-08-24T18:27:46.899Z,100271.33
2022-08-24T18:30:52.860Z,100270.85
2022-08-24T18:33:58.222Z,100268.55
2022-08-24T18:37:04.152Z,100267.42
2022-08-24T18:40:08.832Z,100265.75
2022-08-24T18:43:16.310Z,100261.91
2022-08-24T18:46:22.443Z,100263.27
2022-08-24T18:49:27.953Z,100263.11
2022-08-24T18:52:34.620Z,100263.95
2022-08-24T18:55:40.175Z,100257.96
2022-08-24T18:58:46.192Z,100254.45
2022-08-24T19:02:09.467Z,100258.33
2022-08-24T19:05:24.898Z,100249.30
2022-08-24T19:08:31.691Z,100253.77
2022-08-24T19:11:38.571Z,100258.95
2022-08-24T19:14:46.496Z,100251.08
2022-08-24T19:17:51.379Z,100250.56
2022-08-24T19:20:52.585Z,100250.30
2022-08-24T19:23:59.446Z,100259.47
2022-08-24T19:27:04.870Z,100253.64
2022-08-24T19:30:11.741Z,100253.51
2022-08-24T19:33:18.010Z,100254.00
2022-08-24T19:36:23.962Z,100251.99
2022-08-24T19:39:31.679Z,100257.81
2022-08-24T19:42:35.543Z,100255.69
2022-08-24T19:46:00.309Z,100248.59
2022-08-24T19:49:06.025Z,100247.20
2022-08-24T19:52:13.356Z,100244.34
2022-08-24T19:55:24.089Z,100241.78
2022-08-24T19:58:45.385Z,100238.86
2022-08-24T20:01:52.112Z,100233.31
2022-08-24T20:04:56.980Z,100243.92
2022-08-24T20:08:03.336Z,100234.95
2022-08-24T20:11:09.243Z,100243.33
2022-08-24T20:14:15.355Z,100232.91
2022-08-24T20:17:20.964Z,100237.86
2022-08-24T20:20:27.914Z,100233.19
2022-08-24T20:23:33.237Z,100245.00
2022-08-24T20:26:38.648Z,100237.70
2022-08-24T20:29:44.067Z,100241.88
2022-08-24T20:32:49.263Z,100238.05
2022-08-24T20:35:54.832Z,100222.49
2022-08-24T20:39:01.784Z,100227.31
2022-08-24T20:42:10.894Z,100230.07
2022-08-24T20:45:15.175Z,100223.83
2022-08-24T20:48:21.622Z,100223.99
2022-08-24T20:51:27.328Z,100221.97
2022-08-24T20:54:37.685Z,100218.02
2022-08-24T20:57:40.122Z,100221.37
2022-08-24T21:00:47.923Z,100214.34
2022-08-24T21:03:54.762Z,100219.32
2022-08-24T21:07:01.249Z,100210.44
2022-08-24T21:10:07.929Z,100204.52
2022-08-24T21:13:14.373Z,100215.80
2022-08-24T21:16:22.267Z,100215.62
2022-08-24T21:19:28.433Z,100209.54
2022-08-24T21:22:34.150Z,100207.20
2022-08-24T21:25:39.829Z,100202.84
2022-08-24T21:28:45.457Z,100202.00
2022-08-24T21:31:53.848Z,100191.59
2022-08-24T21:34:59.514Z,100192.94
2022-08-24T21:38:05.907Z,100190.64
2022-08-24T21:41:13.853Z,100194.94
2022-08-24T21:44:19.365Z,100187.08
2022-08-24T21:47:24.753Z,100183.77
2022-08-24T21:50:30.459Z,100191.59
2022-08-24T21:53:35.693Z,100186.36
2022-08-24T21:56:42.970Z,100183.80
2022-08-24T21:59:48.911Z,100191.37
2022-08-24T22:02:49.309Z,100182.17
2022-08-24T22:05:56.296Z,100187.45
2022-08-24T22:09:02.012Z,100179.95
2022-08-24T22:12:07.673Z,100181.34
2022-08-24T22:15:13.764Z,100178.20
2022-08-24T22:18:19.986Z,100174.28
2022-08-24T22:21:29.485Z,100174.45
2022-08-24T22:24:34.581Z,100173.10
2022-08-24T22:27:40.084Z,100170.92
2022-08-24T22:30:48.128Z,100160.71
2022-08-24T22:33:54.434Z,100160.71
2022-08-24T22:37:02.248Z,100167.05
2022-08-24T22:40:12.378Z,100159.16
2022-08-24T22:43:15.245Z,100163.88
2022-08-24T22:46:21.015Z,100147.16
2022-08-24T22:49:26.594Z,100149.88
2022-08-24T22:52:33.243Z,100148.78
2022-08-24T22:55:39.529Z,100147.80
2022-08-24T22:58:45.416Z,100149.96
2022-08-24T23:01:54.422Z,100156.02
2022-08-24T23:05:02.224Z,100152.25
2022-08-24T23:08:08.068Z,100149.70
2022-08-24T23:11:14.733Z,100154.98
2022-08-24T23:14:21.322Z,100158.80
2022-08-24T23:17:27.675Z,100149.72
2022-08-24T23:20:33.670Z,100159.67
2022-08-24T23:23:40.029Z,100159.39
2022-08-24T23:26:45.930Z,100154.99
2022-08-24T23:29:46.156Z,100160.48
2022-08-24T23:32:51.398Z,100151.66
2022-08-24T23:35:56.640Z,100154.00
2022-08-24T23:39:05.509Z,100149.47
2022-08-24T23:42:10.549Z,100157.12
2022-08-24T23:45:16.058Z,100155.45
2022-08-24T23:48:22.127Z,100159.55
2022-08-24T23:51:30.281Z,100157.12
2022-08-24T23:54:36.127Z,100166.45
2022-08-24T23:57:41.487Z,100162.98
